createdAt,value
2022-12-31T00:00:03.546Z,21.92
2022-12-31T00:01:03.542Z,21.97
2022-12-31T00:02:03.629Z,21.97
2022-12-31T00:03:03.762Z,21.97
2022-12-31T00:04:03.446Z,21.96
2022-12-31T00:05:03.444Z,21.96
2022-12-31T00:06:03.457Z,21.97
2022-12-31T00:07:03.456Z,21.97
2022-12-31T00:08:03.483Z,21.97
2022-12-31T00:09:03.384Z,22.01
2022-12-31T00:10:03.395Z,22.01
2022-12-31T00:11:03.476Z,22.04
2022-12-31T00:12:03.462Z,22.08
2022-12-31T00:13:03.399Z,22.10
2022-12-31T00:14:03.376Z,22.10
2022-12-31T00:15:03.383Z,22.12
2022-12-31T00:16:08.358Z,22.12
2022-12-31T00:17:03.372Z,22.14
2022-12-31T00:18:03.334Z,22.12
2022-12-31T00:19:03.435Z,22.10
2022-12-31T00:20:03.281Z,22.12
2022-12-31T00:21:03.272Z,22.12
2022-12-31T00:22:03.265Z,22.12
2022-12-31T00:23:03.271Z,22.12
2022-12-31T00:24:03.335Z,22.15
2022-12-31T00:25:03.259Z,22.15
2022-12-31T00:26:03.263Z,22.15
2022-12-31T00:27:03.285Z,22.16
2022-12-31T00:28:03.265Z,22.18
2022-12-31T00:29:03.206Z,22.16
2022-12-31T00:30:04.948Z,22.18
2022-12-31T00:31:03.223Z,22.19
2022-12-31T00:32:03.135Z,22.19
2022-12-31T00:33:03.148Z,22.16
2022-12-31T00:34:03.141Z,22.18
2022-12-31T00:35:03.243Z,22.18
2022-12-31T00:36:03.064Z,22.19
2022-12-31T00:37:03.119Z,22.22
2022-12-31T00:38:03.082Z,22.23
2022-12-31T00:39:03.159Z,22.25
2022-12-31T00:40:03.080Z,22.22
2022-12-31T00:41:03.176Z,22.22
2022-12-31T00:42:03.082Z,22.21
2022-12-31T00:43:03.079Z,22.18
2022-12-31T00:44:03.020Z,22.18
2022-12-31T00:45:03.006Z,22.21
2022-12-31T00:46:03.058Z,22.23
2022-12-31T00:47:02.983Z,22.25
2022-12-31T00:48:02.939Z,22.23
2022-12-31T00:49:02.954Z,22.23
2022-12-31T00:50:02.968Z,22.22
2022-12-31T00:51:02.972Z,22.22
2022-12-31T00:52:02.968Z,22.23
2022-12-31T00:53:02.952Z,22.23
2022-12-31T00:54:02.877Z,22.25
2022-12-31T00:55:02.900Z,22.23
2022-12-31T00:56:02.890Z,22.25
2022-12-31T00:57:02.886Z,22.23
2022-12-31T00:58:03.298Z,22.23
2022-12-31T00:59:02.900Z,22.26
2022-12-31T01:00:02.807Z,22.26
2022-12-31T01:01:02.961Z,22.25
2022-12-31T01:02:02.951Z,22.23
2022-12-31T01:03:02.958Z,22.25
2022-12-31T01:04:03.249Z,22.25
2022-12-31T01:05:02.837Z,22.22
2022-12-31T01:06:02.749Z,22.21
2022-12-31T01:07:02.761Z,22.21
2022-12-31T01:08:02.821Z,22.19
2022-12-31T01:09:02.824Z,22.19
2022-12-31T01:10:02.770Z,22.18
2022-12-31T01:11:02.790Z,22.16
2022-12-31T01:12:02.746Z,22.16
2022-12-31T01:13:02.747Z,22.16
2022-12-31T01:14:02.713Z,22.19
2022-12-31T01:15:02.709Z,22.21
2022-12-31T01:16:02.757Z,22.21
2022-12-31T01:17:02.640Z,22.22
2022-12-31T01:18:02.623Z,22.21
2022-12-31T01:19:02.622Z,22.18
2022-12-31T01:20:02.633Z,22.18
2022-12-31T01:21:02.669Z,22.15
2022-12-31T01:22:02.658Z,22.14
2022-12-31T01:23:02.566Z,22.12
2022-12-31T01:24:02.569Z,22.04
2022-12-31T01:25:02.621Z,22.01
2022-12-31T01:26:02.591Z,21.99
2022-12-31T01:27:02.579Z,21.94
2022-12-31T01:28:02.665Z,21.88
2022-12-31T01:29:02.548Z,21.85
2022-12-31T01:30:02.508Z,21.89
2022-12-31T01:31:02.620Z,21.91
2022-12-31T01:32:02.514Z,21.94
2022-12-31T01:33:02.517Z,21.96
2022-12-31T01:34:02.518Z,22.00
2022-12-31T01:35:02.436Z,22.00
2022-12-31T01:36:02.447Z,22.01
2022-12-31T01:37:02.430Z,22.01
2022-12-31T01:38:02.526Z,22.01
2022-12-31T01:39:02.452Z,22.04
2022-12-31T01:40:02.455Z,22.07
2022-12-31T01:41:02.363Z,22.08
2022-12-31T01:42:02.372Z,22.12
2022-12-31T01:43:02.455Z,22.12
2022-12-31T01:44:02.444Z,22.15
2022-12-31T01:45:02.385Z,22.19
2022-12-31T01:46:02.409Z,22.21
2022-12-31T01:47:02.378Z,22.23
2022-12-31T01:48:02.310Z,22.23
2022-12-31T01:49:02.309Z,22.25
2022-12-31T01:50:02.352Z,22.26
2022-12-31T01:51:02.430Z,22.28
2022-12-31T01:52:02.334Z,22.25
2022-12-31T01:53:02.244Z,22.25
2022-12-31T01:54:02.250Z,22.22
2022-12-31T01:55:02.295Z,22.22
2022-12-31T01:56:02.229Z,22.23
2022-12-31T01:57:02.265Z,22.23
2022-12-31T01:58:02.379Z,22.23
2022-12-31T01:59:02.190Z,22.25
2022-12-31T02:00:02.214Z,22.25
2022-12-31T02:01:02.276Z,22.22
2022-12-31T02:02:02.317Z,22.21
2022-12-31T02:03:02.262Z,22.21
2022-12-31T02:04:02.289Z,22.18
2022-12-31T02:05:02.168Z,22.18
2022-12-31T02:06:02.158Z,22.19
2022-12-31T02:07:02.121Z,22.22
2022-12-31T02:08:02.122Z,22.22
2022-12-31T02:09:02.120Z,22.22
2022-12-31T02:10:02.143Z,22.21
2022-12-31T02:11:02.086Z,22.21
2022-12-31T02:12:02.067Z,22.18
2022-12-31T02:13:02.135Z,22.18
2022-12-31T02:14:02.060Z,22.16
2022-12-31T02:15:02.055Z,22.16
2022-12-31T02:16:02.109Z,22.15
2022-12-31T02:17:02.034Z,22.10
2022-12-31T02:18:02.003Z,22.07
2022-12-31T02:19:01.978Z,22.06
2022-12-31T02:20:02.023Z,22.04
2022-12-31T02:21:02.014Z,22.06
2022-12-31T02:22:01.999Z,22.06
2022-12-31T02:23:01.970Z,22.04
2022-12-31T02:24:01.973Z,22.01
2022-12-31T02:25:01.983Z,21.97
2022-12-31T02:26:01.933Z,21.96
2022-12-31T02:27:01.935Z,21.97
2022-12-31T02:28:01.936Z,21.94
2022-12-31T02:29:01.957Z,21.94
2022-12-31T02:30:01.885Z,21.94
2022-12-31T02:31:01.955Z,21.94
2022-12-31T02:32:01.861Z,21.96
2022-12-31T02:33:02.915Z,22.00
2022-12-31T02:34:01.886Z,22.03
2022-12-31T02:35:01.859Z,22.07
2022-12-31T02:36:01.790Z,22.07
2022-12-31T02:37:01.797Z,22.10
2022-12-31T02:38:01.858Z,22.08
2022-12-31T02:39:01.813Z,22.12
2022-12-31T02:40:01.842Z,22.14
2022-12-31T02:41:01.775Z,22.12
2022-12-31T02:42:01.832Z,22.14
2022-12-31T02:43:01.741Z,22.15
2022-12-31T02:44:01.738Z,22.14
2022-12-31T02:45:01.722Z,22.07
2022-12-31T02:46:01.819Z,22.07
2022-12-31T02:47:01.724Z,22.04
2022-12-31T02:48:01.663Z,22.07
2022-12-31T02:49:01.674Z,22.10
2022-12-31T02:50:01.795Z,22.12
2022-12-31T02:51:01.684Z,22.15
2022-12-31T02:52:01.698Z,22.16
2022-12-31T02:53:01.712Z,22.16
2022-12-31T02:54:01.622Z,22.16
2022-12-31T02:55:01.673Z,22.15
2022-12-31T02:56:01.623Z,22.14
2022-12-31T02:57:01.682Z,22.14
2022-12-31T02:58:01.645Z,22.14
2022-12-31T02:59:01.549Z,22.14
2022-12-31T03:00:01.547Z,22.12
2022-12-31T03:01:01.716Z,22.14
2022-12-31T03:02:01.722Z,22.12
2022-12-31T03:03:01.583Z,22.12
2022-12-31T03:04:01.632Z,22.14
2022-12-31T03:05:01.557Z,22.15
2022-12-31T03:06:01.545Z,22.18
2022-12-31T03:07:01.538Z,22.21
2022-12-31T03:08:01.543Z,22.19
2022-12-31T03:09:01.547Z,22.23
2022-12-31T03:10:02.043Z,22.23
2022-12-31T03:11:01.419Z,22.25
2022-12-31T03:12:01.476Z,22.25
2022-12-31T03:13:01.474Z,22.23
2022-12-31T03:14:01.489Z,22.23
2022-12-31T03:15:01.507Z,22.22
2022-12-31T03:16:01.462Z,22.18
2022-12-31T03:17:01.409Z,22.10
2022-12-31T03:18:01.435Z,22.03
2022-12-31T03:19:01.413Z,22.01
2022-12-31T03:20:01.345Z,22.01
2022-12-31T03:21:01.362Z,22.00
2022-12-31T03:22:01.337Z,22.00
2022-12-31T03:23:01.281Z,22.01
2022-12-31T03:24:01.320Z,22.03
2022-12-31T03:25:01.314Z,22.04
2022-12-31T03:26:01.277Z,21.99
2022-12-31T03:27:01.321Z,21.94
2022-12-31T03:28:01.300Z,21.92
2022-12-31T03:29:01.220Z,21.89
2022-12-31T03:30:01.251Z,21.89
2022-12-31T03:31:01.394Z,21.88
2022-12-31T03:32:01.232Z,21.89
2022-12-31T03:33:01.217Z,21.92
2022-12-31T03:34:01.208Z,21.92
2022-12-31T03:35:01.150Z,21.91
2022-12-31T03:36:01.159Z,21.91
2022-12-31T03:37:01.146Z,21.89
2022-12-31T03:38:01.173Z,21.88
2022-12-31T03:39:01.245Z,21.88
2022-12-31T03:40:01.155Z,21.89
2022-12-31T03:41:01.156Z,21.91
2022-12-31T03:42:01.088Z,21.91
2022-12-31T03:43:01.048Z,21.94
2022-12-31T03:44:01.077Z,21.91
2022-12-31T03:45:01.094Z,21.89
2022-12-31T03:46:01.109Z,21.81
2022-12-31T03:47:01.031Z,21.81
2022-12-31T03:48:01.069Z,21.80
2022-12-31T03:49:01.021Z,21.80
2022-12-31T03:50:01.025Z,21.77
2022-12-31T03:51:01.027Z,21.78
2022-12-31T03:52:00.960Z,21.78
2022-12-31T03:53:00.963Z,21.80
2022-12-31T03:54:00.977Z,21.83
2022-12-31T03:55:00.963Z,21.83
2022-12-31T03:56:00.961Z,21.80
2022-12-31T03:57:00.927Z,21.78
2022-12-31T03:58:01.485Z,21.75
2022-12-31T03:59:00.904Z,21.74
2022-12-31T04:00:00.944Z,21.70
2022-12-31T04:01:01.096Z,21.69
2022-12-31T04:02:01.043Z,21.66
2022-12-31T04:03:00.930Z,21.65
2022-12-31T04:04:00.873Z,21.68
2022-12-31T04:05:00.843Z,21.68
2022-12-31T04:06:00.941Z,21.69
2022-12-31T04:07:00.896Z,21.69
2022-12-31T04:08:01.389Z,21.68
2022-12-31T04:09:00.813Z,21.70
2022-12-31T04:10:00.768Z,21.70
2022-12-31T04:11:00.823Z,21.70
2022-12-31T04:12:00.827Z,21.70
2022-12-31T04:13:00.770Z,21.66
2022-12-31T04:14:00.774Z,21.69
2022-12-31T04:15:00.785Z,21.66
2022-12-31T04:16:00.792Z,21.62
2022-12-31T04:17:00.735Z,21.60
2022-12-31T04:18:00.743Z,21.60
2022-12-31T04:19:00.819Z,21.60
2022-12-31T04:20:00.712Z,21.58
2022-12-31T04:21:00.656Z,21.51
2022-12-31T04:22:00.695Z,21.47
2022-12-31T04:23:00.687Z,21.47
2022-12-31T04:24:00.673Z,21.41
2022-12-31T04:25:00.684Z,21.40
2022-12-31T04:26:00.633Z,21.41
2022-12-31T04:27:07.111Z,21.43
2022-12-31T04:28:00.598Z,21.45
2022-12-31T04:29:00.600Z,21.47
2022-12-31T04:30:00.619Z,21.47
2022-12-31T04:31:00.550Z,21.43
2022-12-31T04:32:00.632Z,21.43
2022-12-31T04:33:00.525Z,21.40
2022-12-31T04:34:00.544Z,21.40
2022-12-31T04:35:00.543Z,21.38
2022-12-31T04:36:00.519Z,21.40
2022-12-31T04:37:00.507Z,21.37
2022-12-31T04:38:00.478Z,21.29
2022-12-31T04:39:00.546Z,21.30
2022-12-31T04:40:05.965Z,21.32
2022-12-31T04:41:00.499Z,21.33
2022-12-31T04:42:00.494Z,21.32
2022-12-31T04:43:00.464Z,21.29
2022-12-31T04:44:00.473Z,21.28
2022-12-31T04:45:00.419Z,21.30
2022-12-31T04:46:00.464Z,21.26
2022-12-31T04:47:00.413Z,21.25
2022-12-31T04:48:00.375Z,21.23
2022-12-31T04:49:00.386Z,21.25
2022-12-31T04:50:00.328Z,21.23
2022-12-31T04:51:00.269Z,21.23
2022-12-31T04:52:00.353Z,21.19
2022-12-31T04:53:00.868Z,21.17
2022-12-31T04:54:00.328Z,21.17
2022-12-31T04:55:00.304Z,21.19
2022-12-31T04:56:00.345Z,21.20
2022-12-31T04:57:00.291Z,21.20
2022-12-31T04:58:00.291Z,21.22
2022-12-31T04:59:00.302Z,21.23
2022-12-31T05:00:00.268Z,21.25
2022-12-31T05:01:00.308Z,21.26
2022-12-31T05:02:00.465Z,21.25
2022-12-31T05:03:00.287Z,21.26
2022-12-31T05:04:00.235Z,21.26
2022-12-31T05:05:00.291Z,21.28
2022-12-31T05:06:00.203Z,21.30
2022-12-31T05:07:00.164Z,21.32
2022-12-31T05:08:00.151Z,21.33
2022-12-31T05:09:00.333Z,21.32
2022-12-31T05:10:00.184Z,21.26
2022-12-31T05:11:00.182Z,21.26
2022-12-31T05:12:00.118Z,21.26
2022-12-31T05:13:00.118Z,21.26
2022-12-31T05:14:00.110Z,21.28
2022-12-31T05:15:00.123Z,21.28
2022-12-31T05:16:00.124Z,21.26
2022-12-31T05:17:00.315Z,21.26
2022-12-31T05:18:00.021Z,21.30
2022-12-31T05:19:01.060Z,21.32
2022-12-31T05:20:00.036Z,21.35
2022-12-31T05:21:00.032Z,21.40
2022-12-31T05:22:00.209Z,21.40
2022-12-31T05:23:00.004Z,21.41
2022-12-31T05:24:00.055Z,21.41
2022-12-31T05:24:59.955Z,21.37
2022-12-31T05:25:59.962Z,21.29
2022-12-31T05:27:00.051Z,21.20
2022-12-31T05:28:00.404Z,21.22
2022-12-31T05:28:59.937Z,21.22
2022-12-31T05:29:59.973Z,21.23
2022-12-31T05:31:00.037Z,21.23
2022-12-31T05:31:59.917Z,21.22
2022-12-31T05:32:59.930Z,21.23
2022-12-31T05:33:59.908Z,21.23
2022-12-31T05:34:59.936Z,21.25
2022-12-31T05:35:59.845Z,21.26
2022-12-31T05:36:59.851Z,21.26
2022-12-31T05:37:59.855Z,21.28
2022-12-31T05:38:59.868Z,21.28
2022-12-31T05:39:59.939Z,21.25
2022-12-31T05:40:59.837Z,21.26
2022-12-31T05:41:59.775Z,21.28
2022-12-31T05:42:59.790Z,21.26
2022-12-31T05:43:59.788Z,21.28
2022-12-31T05:44:59.800Z,21.28
2022-12-31T05:45:59.853Z,21.29
2022-12-31T05:46:59.708Z,21.28
2022-12-31T05:47:59.817Z,21.29
2022-12-31T05:48:59.720Z,21.28
2022-12-31T05:49:59.737Z,21.22
2022-12-31T05:50:59.739Z,21.17
2022-12-31T05:51:59.729Z,21.14
2022-12-31T05:52:59.673Z,21.13
2022-12-31T05:53:59.658Z,21.10
2022-12-31T05:54:59.646Z,21.05
2022-12-31T05:55:59.667Z,21.04
2022-12-31T05:56:59.643Z,21.03
2022-12-31T05:57:59.680Z,21.04
2022-12-31T05:58:59.610Z,21.04
2022-12-31T05:59:59.585Z,21.04
2022-12-31T06:00:59.701Z,21.03
2022-12-31T06:01:59.914Z,21.00
2022-12-31T06:02:59.735Z,21.03
2022-12-31T06:03:59.598Z,21.03
2022-12-31T06:04:59.549Z,21.00
2022-12-31T06:05:59.559Z,20.93
2022-12-31T06:06:59.620Z,20.89
2022-12-31T06:07:59.576Z,20.86
2022-12-31T06:08:59.524Z,20.86
2022-12-31T06:09:59.532Z,20.88
2022-12-31T06:10:59.489Z,20.88
2022-12-31T06:11:59.475Z,20.88
2022-12-31T06:12:59.569Z,20.88
2022-12-31T06:13:59.559Z,20.89
2022-12-31T06:14:59.485Z,20.92
2022-12-31T06:15:59.554Z,20.93
2022-12-31T06:16:59.421Z,20.96
2022-12-31T06:17:59.505Z,21.00
2022-12-31T06:18:59.453Z,21.01
2022-12-31T06:19:59.401Z,21.00
2022-12-31T06:20:59.708Z,21.01
2022-12-31T06:21:59.481Z,20.96
2022-12-31T06:22:59.419Z,20.93
2022-12-31T06:23:59.439Z,20.95
2022-12-31T06:24:59.437Z,20.98
2022-12-31T06:25:59.452Z,21.01
2022-12-31T06:26:59.345Z,21.00
2022-12-31T06:27:59.397Z,21.03
2022-12-31T06:28:59.383Z,21.03
2022-12-31T06:29:59.365Z,21.04
2022-12-31T06:30:59.512Z,21.03
2022-12-31T06:31:59.371Z,21.04
2022-12-31T06:32:59.375Z,21.04
2022-12-31T06:33:59.287Z,21.03
2022-12-31T06:34:59.293Z,21.03
2022-12-31T06:35:59.294Z,21.03
2022-12-31T06:36:59.383Z,21.01
2022-12-31T06:37:59.227Z,20.98
2022-12-31T06:38:59.220Z,20.93
2022-12-31T06:39:59.225Z,20.88
2022-12-31T06:40:59.229Z,20.83
2022-12-31T06:41:59.406Z,20.77
2022-12-31T06:43:00.372Z,20.73
2022-12-31T06:43:59.154Z,20.74
2022-12-31T06:44:59.180Z,20.71
2022-12-31T06:45:59.121Z,20.71
2022-12-31T06:46:59.240Z,20.71
2022-12-31T06:47:59.137Z,20.71
2022-12-31T06:48:59.248Z,20.71
2022-12-31T06:49:59.205Z,20.74
2022-12-31T06:50:59.047Z,20.74
2022-12-31T06:51:59.056Z,20.75
2022-12-31T06:52:59.167Z,20.78
2022-12-31T06:53:59.180Z,20.74
2022-12-31T06:54:59.029Z,20.75
2022-12-31T06:55:59.186Z,20.75
2022-12-31T06:56:59.048Z,20.74
2022-12-31T06:57:58.995Z,20.73
2022-12-31T06:58:59.062Z,20.74
2022-12-31T06:59:59.011Z,20.75
2022-12-31T07:00:59.074Z,20.75
2022-12-31T07:01:59.286Z,20.70
2022-12-31T07:02:59.069Z,20.66
2022-12-31T07:03:58.989Z,20.63
2022-12-31T07:04:58.894Z,20.63
2022-12-31T07:05:59.048Z,20.60
2022-12-31T07:06:58.920Z,20.60
2022-12-31T07:07:58.958Z,20.63
2022-12-31T07:08:58.861Z,20.59
2022-12-31T07:09:59.133Z,20.58
2022-12-31T07:10:58.838Z,20.58
2022-12-31T07:11:59.047Z,20.56
2022-12-31T07:12:58.963Z,20.55
2022-12-31T07:13:59.105Z,20.55
2022-12-31T07:14:59.015Z,20.55
2022-12-31T07:15:59.184Z,20.55
2022-12-31T07:16:58.897Z,20.53
2022-12-31T07:17:59.129Z,20.52
2022-12-31T07:18:58.812Z,20.50
2022-12-31T07:19:58.944Z,20.50
2022-12-31T07:20:58.904Z,20.50
2022-12-31T07:21:58.829Z,20.48
2022-12-31T07:22:58.855Z,20.46
2022-12-31T07:23:58.752Z,20.37
2022-12-31T07:24:58.755Z,20.36
2022-12-31T07:25:58.866Z,20.32
2022-12-31T07:26:58.778Z,20.24
2022-12-31T07:27:58.717Z,20.22
2022-12-31T07:28:58.784Z,20.21
2022-12-31T07:29:58.810Z,20.21
2022-12-31T07:30:58.701Z,20.22
2022-12-31T07:31:58.790Z,20.21
2022-12-31T07:32:59.520Z,20.19
2022-12-31T07:33:58.722Z,20.17
2022-12-31T07:34:58.620Z,20.14
2022-12-31T07:35:58.635Z,20.14
2022-12-31T07:36:59.351Z,20.17
2022-12-31T07:37:58.664Z,20.15
2022-12-31T07:38:58.658Z,20.19
2022-12-31T07:39:58.580Z,20.19
2022-12-31T07:41:00.574Z,20.17
2022-12-31T07:41:58.567Z,20.15
2022-12-31T07:42:58.584Z,20.12
2022-12-31T07:43:58.588Z,20.11
2022-12-31T07:44:58.584Z,20.12
2022-12-31T07:45:58.496Z,20.15
2022-12-31T07:46:58.518Z,20.14
2022-12-31T07:48:02.452Z,20.17
2022-12-31T07:48:58.437Z,20.19
2022-12-31T07:49:58.521Z,20.22
2022-12-31T07:50:58.530Z,20.24
2022-12-31T07:51:58.530Z,20.26
2022-12-31T07:52:58.437Z,20.26
2022-12-31T07:53:58.534Z,20.30
2022-12-31T07:54:58.373Z,20.32
2022-12-31T07:55:58.348Z,20.34
2022-12-31T07:56:58.382Z,20.36
2022-12-31T07:57:58.359Z,20.40
2022-12-31T07:58:58.395Z,20.46
2022-12-31T07:59:58.389Z,20.50
2022-12-31T08:00:58.377Z,20.50
2022-12-31T08:01:58.378Z,20.52
2022-12-31T08:02:58.400Z,20.48
2022-12-31T08:03:58.291Z,20.40
2022-12-31T08:04:58.250Z,20.39
2022-12-31T08:05:58.255Z,20.33
2022-12-31T08:06:58.258Z,20.26
2022-12-31T08:07:58.275Z,20.18
2022-12-31T08:08:58.439Z,20.15
2022-12-31T08:09:58.250Z,20.17
2022-12-31T08:10:58.182Z,20.14
2022-12-31T08:11:58.158Z,20.11
2022-12-31T08:12:58.163Z,20.11
2022-12-31T08:13:58.168Z,20.11
2022-12-31T08:14:58.103Z,20.15
2022-12-31T08:15:58.229Z,20.15
2022-12-31T08:16:58.128Z,20.14
2022-12-31T08:17:58.140Z,20.18
2022-12-31T08:18:58.231Z,20.22
2022-12-31T08:19:58.044Z,20.26
2022-12-31T08:20:58.111Z,20.24
2022-12-31T08:21:58.059Z,20.22
2022-12-31T08:22:58.157Z,20.24
2022-12-31T08:23:58.059Z,20.26
2022-12-31T08:24:58.042Z,20.29
2022-12-31T08:25:58.082Z,20.32
2022-12-31T08:26:57.983Z,20.36
2022-12-31T08:27:57.994Z,20.36
2022-12-31T08:28:57.945Z,20.39
2022-12-31T08:29:58.005Z,20.40
2022-12-31T08:30:58.003Z,20.44
2022-12-31T08:31:58.074Z,20.48
2022-12-31T08:32:58.535Z,20.46
2022-12-31T08:34:02.100Z,20.42
2022-12-31T08:34:57.888Z,20.36
2022-12-31T08:35:57.885Z,20.30
2022-12-31T08:36:57.843Z,20.27
2022-12-31T08:37:57.850Z,20.27
2022-12-31T08:38:57.846Z,20.27
2022-12-31T08:39:57.868Z,20.29
2022-12-31T08:40:57.818Z,20.29
2022-12-31T08:41:57.831Z,20.29
2022-12-31T08:42:57.853Z,20.30
2022-12-31T08:43:57.781Z,20.34
2022-12-31T08:44:57.798Z,20.36
2022-12-31T08:45:57.851Z,20.39
2022-12-31T08:46:57.798Z,20.40
2022-12-31T08:48:00.073Z,20.46
2022-12-31T08:48:57.724Z,20.48
2022-12-31T08:49:57.722Z,20.48
2022-12-31T08:50:57.724Z,20.44
2022-12-31T08:51:57.638Z,20.44
2022-12-31T08:52:57.762Z,20.44
2022-12-31T08:53:57.644Z,20.46
2022-12-31T08:54:57.650Z,20.49
2022-12-31T08:55:57.656Z,20.49
2022-12-31T08:56:57.670Z,20.49
2022-12-31T08:57:57.681Z,20.52
2022-12-31T08:58:57.638Z,20.53
2022-12-31T08:59:57.654Z,20.53
2022-12-31T09:00:57.780Z,20.53
2022-12-31T09:01:57.718Z,20.52
2022-12-31T09:02:57.573Z,20.42
2022-12-31T09:03:57.612Z,20.39
2022-12-31T09:04:57.613Z,20.37
2022-12-31T09:05:57.527Z,20.36
2022-12-31T09:06:57.540Z,20.36
2022-12-31T09:07:57.497Z,20.33
2022-12-31T09:08:57.498Z,20.34
2022-12-31T09:09:57.523Z,20.34
2022-12-31T09:10:57.960Z,20.33
2022-12-31T09:11:57.523Z,20.32
2022-12-31T09:12:57.469Z,20.33
2022-12-31T09:13:57.473Z,20.34
2022-12-31T09:14:57.472Z,20.36
2022-12-31T09:15:57.415Z,20.40
2022-12-31T09:16:57.473Z,20.42
2022-12-31T09:17:57.399Z,20.40
2022-12-31T09:18:57.402Z,20.40
2022-12-31T09:19:57.371Z,20.40
2022-12-31T09:20:57.413Z,20.37
2022-12-31T09:21:57.358Z,20.37
2022-12-31T09:22:57.358Z,20.37
2022-12-31T09:23:57.341Z,20.40
2022-12-31T09:24:57.374Z,20.42
2022-12-31T09:25:57.316Z,20.48
2022-12-31T09:26:57.356Z,20.50
2022-12-31T09:27:57.319Z,20.52
2022-12-31T09:28:57.315Z,20.53
2022-12-31T09:29:57.275Z,20.53
2022-12-31T09:30:57.305Z,20.53
2022-12-31T09:31:57.318Z,20.52
2022-12-31T09:33:01.018Z,20.55
2022-12-31T09:33:57.257Z,20.56
2022-12-31T09:34:57.268Z,20.60
2022-12-31T09:35:57.244Z,20.58
2022-12-31T09:36:57.281Z,20.63
2022-12-31T09:37:57.256Z,20.66
2022-12-31T09:38:57.230Z,20.70
2022-12-31T09:39:57.226Z,20.75
2022-12-31T09:40:57.208Z,20.80
2022-12-31T09:41:57.259Z,20.85
2022-12-31T09:42:57.194Z,20.89
2022-12-31T09:44:00.941Z,20.93
2022-12-31T09:44:57.106Z,20.98
2022-12-31T09:45:57.191Z,21.01
2022-12-31T09:46:57.493Z,21.04
2022-12-31T09:47:57.177Z,21.07
2022-12-31T09:48:57.110Z,21.07
2022-12-31T09:49:57.116Z,21.14
2022-12-31T09:50:57.098Z,21.17
2022-12-31T09:51:57.132Z,21.22
2022-12-31T09:52:57.533Z,21.22
2022-12-31T09:53:57.064Z,21.19
2022-12-31T09:54:57.042Z,21.19
2022-12-31T09:55:57.057Z,21.17
2022-12-31T09:56:59.189Z,21.19
2022-12-31T09:57:57.038Z,21.20
2022-12-31T09:58:57.079Z,21.22
2022-12-31T09:59:56.981Z,21.23
2022-12-31T10:00:57.036Z,21.22
2022-12-31T10:01:57.200Z,21.22
2022-12-31T10:02:57.011Z,21.22
2022-12-31T10:03:56.934Z,21.23
2022-12-31T10:04:57.012Z,21.26
2022-12-31T10:05:56.952Z,21.29
2022-12-31T10:06:56.854Z,21.33
2022-12-31T10:07:56.865Z,21.38
2022-12-31T10:08:56.889Z,21.41
2022-12-31T10:09:56.877Z,21.45
2022-12-31T10:10:56.888Z,21.48
2022-12-31T10:11:56.856Z,21.51
2022-12-31T10:12:56.799Z,21.56
2022-12-31T10:13:56.803Z,21.58
2022-12-31T10:14:56.804Z,21.56
2022-12-31T10:15:56.988Z,21.56
2022-12-31T10:16:56.875Z,21.56
2022-12-31T10:17:56.788Z,21.56
2022-12-31T10:18:56.731Z,21.54
2022-12-31T10:19:56.823Z,21.56
2022-12-31T10:20:56.841Z,21.59
2022-12-31T10:21:56.754Z,21.63
2022-12-31T10:22:56.663Z,21.66
2022-12-31T10:23:56.661Z,21.72
2022-12-31T10:24:56.669Z,21.75
2022-12-31T10:25:56.666Z,21.78
2022-12-31T10:26:56.766Z,21.80
2022-12-31T10:27:57.002Z,21.84
2022-12-31T10:28:56.650Z,21.84
2022-12-31T10:29:56.658Z,21.85
2022-12-31T10:30:56.658Z,21.81
2022-12-31T10:31:56.675Z,21.81
2022-12-31T10:32:56.618Z,21.80
2022-12-31T10:33:56.691Z,21.83
2022-12-31T10:34:56.606Z,21.85
2022-12-31T10:35:56.539Z,21.89
2022-12-31T10:36:56.553Z,21.89
2022-12-31T10:37:56.652Z,21.91
2022-12-31T10:38:56.564Z,21.88
2022-12-31T10:39:56.615Z,21.91
2022-12-31T10:40:56.523Z,21.92
2022-12-31T10:41:56.547Z,21.92
2022-12-31T10:42:56.482Z,21.97
2022-12-31T10:43:56.495Z,21.97
2022-12-31T10:44:56.555Z,21.99
2022-12-31T10:45:56.605Z,22.00
2022-12-31T10:46:56.522Z,22.03
2022-12-31T10:47:56.625Z,22.04
2022-12-31T10:48:56.444Z,22.07
2022-12-31T10:49:56.438Z,22.08
2022-12-31T10:50:56.538Z,22.14
2022-12-31T10:51:56.486Z,22.16
2022-12-31T10:52:56.518Z,22.22
2022-12-31T10:53:56.353Z,22.28
2022-12-31T10:54:56.360Z,22.34
2022-12-31T10:55:56.369Z,22.38
2022-12-31T10:56:56.416Z,22.44
2022-12-31T10:58:02.005Z,22.49
2022-12-31T10:58:56.428Z,22.52
2022-12-31T10:59:56.335Z,22.55
2022-12-31T11:00:56.347Z,22.58
2022-12-31T11:01:56.383Z,22.59
2022-12-31T11:02:56.499Z,22.59
2022-12-31T11:03:56.288Z,22.59
2022-12-31T11:04:56.266Z,22.59
2022-12-31T11:05:56.225Z,22.59
2022-12-31T11:06:56.234Z,22.59
2022-12-31T11:07:56.237Z,22.63
2022-12-31T11:08:56.557Z,22.65
2022-12-31T11:09:56.201Z,22.67
2022-12-31T11:10:56.212Z,22.68
2022-12-31T11:11:56.165Z,22.73
2022-12-31T11:12:56.168Z,22.73
2022-12-31T11:13:56.278Z,22.76
2022-12-31T11:14:56.206Z,22.78
2022-12-31T11:15:56.287Z,22.81
2022-12-31T11:16:56.149Z,22.84
2022-12-31T11:17:56.163Z,22.84
2022-12-31T11:18:56.227Z,22.84
2022-12-31T11:19:56.175Z,22.86
2022-12-31T11:20:56.131Z,22.89
2022-12-31T11:21:56.286Z,22.91
2022-12-31T11:22:56.093Z,22.91
2022-12-31T11:23:56.108Z,22.88
2022-12-31T11:24:56.105Z,22.91
2022-12-31T11:25:56.093Z,22.89
2022-12-31T11:26:56.024Z,22.93
2022-12-31T11:27:56.063Z,22.98
2022-12-31T11:28:55.988Z,23.02
2022-12-31T11:29:56.049Z,23.08
2022-12-31T11:30:56.090Z,23.11
2022-12-31T11:31:55.992Z,23.18
2022-12-31T11:32:55.965Z,23.25
2022-12-31T11:33:56.075Z,23.32
2022-12-31T11:34:55.931Z,23.37
2022-12-31T11:35:55.942Z,23.45
2022-12-31T11:36:55.907Z,23.45
2022-12-31T11:37:55.894Z,23.44
2022-12-31T11:38:55.900Z,23.47
2022-12-31T11:39:55.916Z,23.49
2022-12-31T11:40:55.878Z,23.54
2022-12-31T11:41:55.894Z,23.58
2022-12-31T11:42:55.896Z,23.64
2022-12-31T11:43:55.838Z,23.69
2022-12-31T11:44:55.811Z,23.74
2022-12-31T11:45:55.814Z,23.81
2022-12-31T11:46:55.809Z,23.88
2022-12-31T11:48:29.256Z,23.91
2022-12-31T11:48:55.790Z,23.95
2022-12-31T11:49:55.823Z,24.01
2022-12-31T11:50:55.775Z,24.06
2022-12-31T11:51:55.741Z,24.11
2022-12-31T11:52:55.735Z,24.14
2022-12-31T11:53:55.848Z,24.22
2022-12-31T11:54:55.702Z,24.28
2022-12-31T11:55:55.734Z,24.32
2022-12-31T11:56:55.678Z,24.38
2022-12-31T11:57:55.721Z,24.43
2022-12-31T11:58:55.709Z,24.48
2022-12-31T11:59:55.663Z,24.53
2022-12-31T12:00:55.706Z,24.61
2022-12-31T12:01:55.610Z,24.65
2022-12-31T12:02:55.805Z,24.68
2022-12-31T12:03:55.733Z,24.68
2022-12-31T12:04:55.627Z,24.63
2022-12-31T12:05:55.638Z,24.58
2022-12-31T12:06:55.642Z,24.62
2022-12-31T12:07:55.608Z,24.68
2022-12-31T12:08:55.591Z,24.74
2022-12-31T12:09:55.567Z,24.78
2022-12-31T12:10:56.527Z,24.75
2022-12-31T12:11:55.660Z,24.78
2022-12-31T12:12:55.543Z,24.74
2022-12-31T12:13:55.526Z,24.74
2022-12-31T12:14:55.561Z,24.78
2022-12-31T12:15:55.582Z,24.86
2022-12-31T12:16:59.164Z,24.94
2022-12-31T12:17:55.576Z,25.01
2022-12-31T12:18:55.416Z,25.11
2022-12-31T12:19:55.481Z,25.18
2022-12-31T12:20:55.512Z,25.18
2022-12-31T12:21:55.434Z,25.12
2022-12-31T12:22:55.442Z,25.12
2022-12-31T12:23:55.565Z,25.11
2022-12-31T12:24:55.371Z,25.14
2022-12-31T12:25:55.379Z,25.12
2022-12-31T12:26:55.450Z,25.18
2022-12-31T12:27:55.424Z,25.19
2022-12-31T12:28:55.381Z,25.25
2022-12-31T12:29:55.383Z,25.22
2022-12-31T12:30:55.315Z,25.22
2022-12-31T12:31:55.314Z,25.25
2022-12-31T12:32:55.303Z,25.33
2022-12-31T12:33:55.380Z,25.37
2022-12-31T12:34:55.306Z,25.40
2022-12-31T12:35:55.309Z,25.44
2022-12-31T12:36:55.342Z,25.46
2022-12-31T12:37:55.257Z,25.54
2022-12-31T12:38:55.338Z,25.48
2022-12-31T12:39:55.273Z,25.39
2022-12-31T12:40:55.283Z,25.41
2022-12-31T12:41:55.243Z,25.49
2022-12-31T12:42:55.191Z,25.58
2022-12-31T12:43:55.258Z,25.71
2022-12-31T12:44:55.206Z,25.85
2022-12-31T12:45:55.208Z,25.96
2022-12-31T12:46:55.267Z,26.04
2022-12-31T12:47:55.113Z,26.11
2022-12-31T12:48:55.143Z,26.07
2022-12-31T12:49:55.142Z,25.88
2022-12-31T12:50:56.039Z,25.89
2022-12-31T12:51:55.149Z,25.98